Pittston, PA (18640)

8:36 AM EST on February 09, 2016 (GMT -0500)
West Wyoming | | Change Station
CLOSE
Current Station
Personal Weather Station
Location: Wyoming, PA
Elevation: 745 ft
Nearby Weather Stations

Elev 745 ft 41.32 °N, 75.85 °W | Updated 4 minutes ago

Overcast
Overcast
29.7 °F
Feels Like 30 °F
N
0.0
Wind Variable Wind from South

Today
High -- | Low -- °F
--% Chance of Precip.
Yesterday
High -- | Low -- °F
Precip. -- in
Pressure 29.60 in
Visibility 10.0 miles
Clouds Overcast 1700 ft
Windchill 30 °F
Dew Point 26 °F
Humidity 84%
Rainfall 0.00 in
Snow Depth Not available.
7:06 AM 5:29 PM
New Moon, 1% visible
METAR KAVP 091254Z AUTO VRB03KT 10SM OVC017 M02/M06 A2958 RMK AO2 SLP023 T10221061
Pressure 29.60 in
Visibility 10.0 miles
Clouds Overcast 1700 ft
Windchill 30 °F
Dew Point 26 °F
Humidity 84%
Rainfall 0.00 in
Snow Depth Not available.
7:06 AM 5:29 PM
New Moon, 1% visible
METAR KAVP 091254Z AUTO VRB03KT 10SM OVC017 M02/M06 A2958 RMK AO2 SLP023 T10221061

10-Day Weather Forecast

Almanac

Astronomy

Feb. 09, 2016 Rise Set
Actual Time
Civil Twilight
Nautical Twilight
Astronomical Twilight
Moon
Length of Visible Light
Length of Day
Tomorrow will be .
, % of the Moon is Illuminated

Today's Extremes

State Highs State Lows

Community

WunderPhotos

Upload Photos

1,891,591 photos uploaded!

WunderBlog® & News

Nearby

Air Quality

  Air Quality AQ Index Pollutant
Not available.

Snow Depth

Station Depth Elevation

Earthquake Activity

City Distance Mag. Time & Date
Minimum magnitude displayed is 2.5.

Coastal Water Temperatures

Place Temperature

Stations

Nearby Weather Stations

Station Location Temp. Windchill Dew Point Humidity Wind Precip. Elev Updated Type
                   

Watches & Warnings

There are currently no watches in effect.